sensor_id;sensor_type;location;lat;lon;timestamp;pressure;altitude;pressure_sealevel;temperature;humidity
4012;BME280;2020;48.682;9.024;2023-06-24T00:01:19;97291.06;;;16.12;67.10
4012;BME280;2020;48.682;9.024;2023-06-24T00:03:44;97297.84;;;16.06;67.37
4012;BME280;2020;48.682;9.024;2023-06-24T00:06:12;97307.22;;;15.92;67.51
4012;BME280;2020;48.682;9.024;2023-06-24T00:08:44;97306.22;;;15.85;68.07
4012;BME280;2020;48.682;9.024;2023-06-24T00:11:10;97300.97;;;16.01;67.61
4012;BME280;2020;48.682;9.024;2023-06-24T00:13:35;97303.94;;;15.82;67.77
4012;BME280;2020;48.682;9.024;2023-06-24T00:16:00;97301.63;;;15.87;67.72
4012;BME280;2020;48.682;9.024;2023-06-24T00:18:26;97297.72;;;15.83;68.11
4012;BME280;2020;48.682;9.024;2023-06-24T00:20:55;97299.69;;;15.81;67.93
4012;BME280;2020;48.682;9.024;2023-06-24T00:23:22;97298.34;;;15.85;67.74
4012;BME280;2020;48.682;9.024;2023-06-24T00:25:54;97302.78;;;15.76;67.39
4012;BME280;2020;48.682;9.024;2023-06-24T00:28:20;97302.00;;;15.67;68.91
4012;BME280;2020;48.682;9.024;2023-06-24T00:30:49;97303.97;;;15.73;68.09
4012;BME280;2020;48.682;9.024;2023-06-24T00:33:15;97292.38;;;15.43;69.38
4012;BME280;2020;48.682;9.024;2023-06-24T00:35:42;97295.66;;;15.45;69.32
4012;BME280;2020;48.682;9.024;2023-06-24T00:38:08;97291.22;;;15.45;69.66
4012;BME280;2020;48.682;9.024;2023-06-24T00:40:33;97295.81;;;15.52;68.74
4012;BME280;2020;48.682;9.024;2023-06-24T00:42:58;97284.69;;;15.41;69.38
4012;BME280;2020;48.682;9.024;2023-06-24T00:45:24;97297.13;;;15.39;70.05
4012;BME280;2020;48.682;9.024;2023-06-24T00:47:50;97302.06;;;15.42;70.09
4012;BME280;2020;48.682;9.024;2023-06-24T00:50:16;97294.00;;;15.44;69.48
4012;BME280;2020;48.682;9.024;2023-06-24T00:52:42;97293.53;;;15.40;69.27
4012;BME280;2020;48.682;9.024;2023-06-24T00:55:11;97294.53;;;15.31;70.14
4012;BME280;2020;48.682;9.024;2023-06-24T00:57:43;97292.53;;;15.16;71.00
4012;BME280;2020;48.682;9.024;2023-06-24T01:00:09;97286.50;;;15.16;71.16
4012;BME280;2020;48.682;9.024;2023-06-24T01:02:39;97292.53;;;15.16;71.02
4012;BME280;2020;48.682;9.024;2023-06-24T01:05:07;97292.88;;;15.13;70.72
4012;BME280;2020;48.682;9.024;2023-06-24T01:07:33;97294.69;;;15.13;70.13
4012;BME280;2020;48.682;9.024;2023-06-24T01:10:02;97293.84;;;15.04;71.23
4012;BME280;2020;48.682;9.024;2023-06-24T01:12:28;97293.84;;;14.96;72.04
4012;BME280;2020;48.682;9.024;2023-06-24T01:14:53;97291.72;;;14.83;72.73
4012;BME280;2020;48.682;9.024;2023-06-24T01:17:23;97294.50;;;14.81;72.83
4012;BME280;2020;48.682;9.024;2023-06-24T01:20:02;97292.53;;;14.83;72.79
4012;BME280;2020;48.682;9.024;2023-06-24T01:33:09;97287.59;;;14.80;72.07
4012;BME280;2020;48.682;9.024;2023-06-24T01:35:37;97288.78;;;14.77;72.19
4012;BME280;2020;48.682;9.024;2023-06-24T01:38:08;97289.56;;;14.78;72.19
4012;BME280;2020;48.682;9.024;2023-06-24T01:40:41;97279.75;;;14.72;71.99
4012;BME280;2020;48.682;9.024;2023-06-24T01:43:08;97286.56;;;14.65;72.80
4012;BME280;2020;48.682;9.024;2023-06-24T01:45:41;97282.94;;;14.41;73.77
4012;BME280;2020;48.682;9.024;2023-06-24T01:51:01;97290.44;;;14.36;74.52
4012;BME280;2020;48.682;9.024;2023-06-24T01:53:28;97287.94;;;14.26;74.58
4012;BME280;2020;48.682;9.024;2023-06-24T01:55:54;97290.06;;;14.22;75.09
4012;BME280;2020;48.682;9.024;2023-06-24T01:58:22;97283.81;;;14.15;75.16
4012;BME280;2020;48.682;9.024;2023-06-24T02:00:48;97285.97;;;14.19;75.12
4012;BME280;2020;48.682;9.024;2023-06-24T02:03:14;97279.59;;;14.22;74.38
4012;BME280;2020;48.682;9.024;2023-06-24T02:05:41;97282.25;;;14.30;73.73
4012;BME280;2020;48.682;9.024;2023-06-24T02:08:10;97287.81;;;14.27;73.49
4012;BME280;2020;48.682;9.024;2023-06-24T02:10:39;97287.59;;;14.21;73.90
4012;BME280;2020;48.682;9.024;2023-06-24T02:13:08;97285.63;;;14.23;73.87
4012;BME280;2020;48.682;9.024;2023-06-24T02:15:35;97292.03;;;14.20;74.03
4012;BME280;2020;48.682;9.024;2023-06-24T02:18:03;97288.25;;;14.23;73.69
4012;BME280;2020;48.682;9.024;2023-06-24T02:20:31;97289.44;;;14.28;74.28
4012;BME280;2020;48.682;9.024;2023-06-24T02:22:57;97284.97;;;14.21;74.44
4012;BME280;2020;48.682;9.024;2023-06-24T02:25:24;97278.28;;;14.18;74.72
4012;BME280;2020;48.682;9.024;2023-06-24T02:27:52;97279.53;;;14.06;74.74
4012;BME280;2020;48.682;9.024;2023-06-24T02:30:19;97279.53;;;14.06;74.31
4012;BME280;2020;48.682;9.024;2023-06-24T02:32:44;97276.53;;;13.92;75.33
4012;BME280;2020;48.682;9.024;2023-06-24T02:35:09;97272.94;;;13.93;75.87
4012;BME280;2020;48.682;9.024;2023-06-24T02:37:35;97276.38;;;13.94;75.83
4012;BME280;2020;48.682;9.024;2023-06-24T02:40:01;97276.28;;;13.77;77.21
4012;BME280;2020;48.682;9.024;2023-06-24T02:42:26;97273.13;;;13.65;77.99
4012;BME280;2020;48.682;9.024;2023-06-24T02:44:52;97271.47;;;13.64;77.79
4012;BME280;2020;48.682;9.024;2023-06-24T02:47:19;97276.91;;;13.71;76.22
4012;BME280;2020;48.682;9.024;2023-06-24T02:49:46;97277.72;;;13.71;76.41
4012;BME280;2020;48.682;9.024;2023-06-24T02:52:13;97279.06;;;13.75;76.65
4012;BME280;2020;48.682;9.024;2023-06-24T02:54:39;97277.22;;;13.68;76.94
4012;BME280;2020;48.682;9.024;2023-06-24T02:57:05;97280.59;;;13.60;77.37
4012;BME280;2020;48.682;9.024;2023-06-24T02:59:32;97279.78;;;13.59;77.00
4012;BME280;2020;48.682;9.024;2023-06-24T03:01:57;97279.31;;;13.64;76.68
4012;BME280;2020;48.682;9.024;2023-06-24T03:04:23;97276.25;;;13.69;76.43
4012;BME280;2020;48.682;9.024;2023-06-24T03:06:49;97287.03;;;13.66;76.34
4012;BME280;2020;48.682;9.024;2023-06-24T03:09:16;97280.59;;;13.60;76.23
4012;BME280;2020;48.682;9.024;2023-06-24T03:11:42;97284.72;;;13.63;76.84
4012;BME280;2020;48.682;9.024;2023-06-24T03:14:08;97291.38;;;13.57;77.34
4012;BME280;2020;48.682;9.024;2023-06-24T03:16:33;97290.03;;;13.53;76.50
4012;BME280;2020;48.682;9.024;2023-06-24T03:18:59;97290.03;;;13.53;76.40
4012;BME280;2020;48.682;9.024;2023-06-24T03:21:24;97289.00;;;13.45;76.80
4012;BME280;2020;48.682;9.024;2023-06-24T03:23:53;97296.78;;;13.37;78.01
4012;BME280;2020;48.682;9.024;2023-06-24T03:26:18;97299.69;;;13.34;78.68
4012;BME280;2020;48.682;9.024;2023-06-24T03:28:44;97302.31;;;13.34;78.63
4012;BME280;2020;48.682;9.024;2023-06-24T03:31:09;97301.13;;;13.47;79.03
4012;BME280;2020;48.682;9.024;2023-06-24T03:33:34;97303.75;;;13.28;79.32
4012;BME280;2020;48.682;9.024;2023-06-24T03:35:59;97299.63;;;13.26;79.25
4012;BME280;2020;48.682;9.024;2023-06-24T03:38:25;97297.38;;;13.31;79.39
4012;BME280;2020;48.682;9.024;2023-06-24T03:40:50;97303.28;;;13.33;79.15
4012;BME280;2020;48.682;9.024;2023-06-24T03:43:15;97310.00;;;13.36;79.03
4012;BME280;2020;48.682;9.024;2023-06-24T03:45:41;97315.75;;;13.39;78.18
4012;BME280;2020;48.682;9.024;2023-06-24T03:48:06;97308.28;;;13.44;77.14
4012;BME280;2020;48.682;9.024;2023-06-24T03:50:31;97308.81;;;13.48;78.40
4012;BME280;2020;48.682;9.024;2023-06-24T03:52:56;97318.81;;;13.53;78.20
4012;BME280;2020;48.682;9.024;2023-06-24T03:55:22;97320.09;;;13.49;76.32
4012;BME280;2020;48.682;9.024;2023-06-24T03:57:47;97324.22;;;13.51;77.24
4012;BME280;2020;48.682;9.024;2023-06-24T04:00:12;97329.22;;;13.44;78.20
4012;BME280;2020;48.682;9.024;2023-06-24T04:02:41;97329.22;;;13.44;78.99
4012;BME280;2020;48.682;9.024;2023-06-24T04:05:07;97330.53;;;13.49;79.19
4012;BME280;2020;48.682;9.024;2023-06-24T04:07:32;97330.53;;;13.49;79.94
4012;BME280;2020;48.682;9.024;2023-06-24T04:09:58;97330.72;;;13.47;78.96
4012;BME280;2020;48.682;9.024;2023-06-24T04:12:23;97331.38;;;13.49;78.91
4012;BME280;2020;48.682;9.024;2023-06-24T04:14:49;97338.75;;;13.54;79.01
4012;BME280;2020;48.682;9.024;2023-06-24T04:17:14;97340.63;;;13.62;80.05
4012;BME280;2020;48.682;9.024;2023-06-24T04:19:40;97343.06;;;13.63;79.90
4012;BME280;2020;48.682;9.024;2023-06-24T04:22:05;97346.66;;;13.62;81.60
4012;BME280;2020;48.682;9.024;2023-06-24T04:24:31;97348.84;;;13.67;81.50
4012;BME280;2020;48.682;9.024;2023-06-24T04:26:57;97342.97;;;13.73;81.41
4012;BME280;2020;48.682;9.024;2023-06-24T04:29:22;97345.75;;;13.71;80.25
4012;BME280;2020;48.682;9.024;2023-06-24T04:31:47;97346.03;;;13.68;81.75
4012;BME280;2020;48.682;9.024;2023-06-24T04:34:13;97354.97;;;13.84;82.04
4012;BME280;2020;48.682;9.024;2023-06-24T04:36:38;97351.69;;;13.82;81.16
4012;BME280;2020;48.682;9.024;2023-06-24T04:39:04;97343.88;;;13.90;81.78
4012;BME280;2020;48.682;9.024;2023-06-24T04:41:29;97355.28;;;13.81;82.03
4012;BME280;2020;48.682;9.024;2023-06-24T04:43:56;97351.50;;;14.01;81.28
4012;BME280;2020;48.682;9.024;2023-06-24T04:46:21;97348.91;;;14.10;80.80
4012;BME280;2020;48.682;9.024;2023-06-24T04:48:46;97355.16;;;14.17;80.47
4012;BME280;2020;48.682;9.024;2023-06-24T04:51:12;97362.06;;;14.18;79.07
4012;BME280;2020;48.682;9.024;2023-06-24T04:53:37;97363.56;;;14.29;79.20
4012;BME280;2020;48.682;9.024;2023-06-24T04:56:02;97364.47;;;14.46;77.27
4012;BME280;2020;48.682;9.024;2023-06-24T04:58:28;97355.94;;;14.44;78.14
4012;BME280;2020;48.682;9.024;2023-06-24T05:00:53;97353.34;;;14.52;77.12
4012;BME280;2020;48.682;9.024;2023-06-24T05:03:18;97347.78;;;14.55;77.47
4012;BME280;2020;48.682;9.024;2023-06-24T05:05:44;97358.25;;;14.47;78.66
4012;BME280;2020;48.682;9.024;2023-06-24T05:08:09;97357.91;;;14.50;79.21
4012;BME280;2020;48.682;9.024;2023-06-24T05:10:34;97356.31;;;14.57;78.74
4012;BME280;2020;48.682;9.024;2023-06-24T05:13:00;97359.31;;;14.71;77.79
4012;BME280;2020;48.682;9.024;2023-06-24T05:15:25;97359.31;;;14.71;78.24
4012;BME280;2020;48.682;9.024;2023-06-24T05:17:50;97356.59;;;14.97;77.55
4012;BME280;2020;48.682;9.024;2023-06-24T05:20:15;97361.34;;;14.94;77.38
4012;BME280;2020;48.682;9.024;2023-06-24T05:22:42;97367.75;;;15.08;76.86
4012;BME280;2020;48.682;9.024;2023-06-24T05:25:08;97362.66;;;14.98;77.49
4012;BME280;2020;48.682;9.024;2023-06-24T05:27:33;97370.53;;;15.06;77.07
4012;BME280;2020;48.682;9.024;2023-06-24T05:29:58;97364.97;;;15.09;77.17
4012;BME280;2020;48.682;9.024;2023-06-24T05:32:24;97370.59;;;15.31;76.00
4012;BME280;2020;48.682;9.024;2023-06-24T05:34:49;97357.78;;;15.44;73.45
4012;BME280;2020;48.682;9.024;2023-06-24T05:37:14;97362.38;;;15.50;75.01
4012;BME280;2020;48.682;9.024;2023-06-24T05:39:40;97368.94;;;15.55;74.64
4012;BME280;2020;48.682;9.024;2023-06-24T05:42:05;97366.94;;;15.73;74.00
4012;BME280;2020;48.682;9.024;2023-06-24T05:44:31;97373.16;;;15.81;73.19
4012;BME280;2020;48.682;9.024;2023-06-24T05:46:56;97373.34;;;15.87;71.13
4012;BME280;2020;48.682;9.024;2023-06-24T05:49:21;97377.13;;;15.93;72.91
4012;BME280;2020;48.682;9.024;2023-06-24T05:51:46;97368.22;;;16.11;71.21
4012;BME280;2020;48.682;9.024;2023-06-24T05:54:12;97373.06;;;16.30;70.12
4012;BME280;2020;48.682;9.024;2023-06-24T05:56:37;97365.97;;;16.47;70.29
4012;BME280;2020;48.682;9.024;2023-06-24T05:59:02;97374.78;;;16.55;70.07
4012;BME280;2020;48.682;9.024;2023-06-24T06:01:28;97372.31;;;16.61;69.48
4012;BME280;2020;48.682;9.024;2023-06-24T06:03:53;97375.56;;;16.72;68.81
4012;BME280;2020;48.682;9.024;2023-06-24T06:06:18;97379.06;;;16.87;67.84
4012;BME280;2020;48.682;9.024;2023-06-24T06:08:44;97376.88;;;16.99;67.36
4012;BME280;2020;48.682;9.024;2023-06-24T06:11:10;97371.41;;;17.09;65.90
4012;BME280;2020;48.682;9.024;2023-06-24T06:13:35;97381.00;;;17.02;66.33
4012;BME280;2020;48.682;9.024;2023-06-24T06:16:00;97373.63;;;17.20;65.41
4012;BME280;2020;48.682;9.024;2023-06-24T06:18:26;97364.63;;;17.38;64.89
4012;BME280;2020;48.682;9.024;2023-06-24T06:20:51;97360.84;;;17.56;64.16
4012;BME280;2020;48.682;9.024;2023-06-24T06:23:17;97363.63;;;17.77;63.87
4012;BME280;2020;48.682;9.024;2023-06-24T06:25:43;97369.44;;;17.88;63.06
4012;BME280;2020;48.682;9.024;2023-06-24T06:28:08;97366.47;;;17.91;62.65
4012;BME280;2020;48.682;9.024;2023-06-24T06:30:33;97363.41;;;18.17;62.12
4012;BME280;2020;48.682;9.024;2023-06-24T06:32:59;97363.59;;;18.31;60.85
4012;BME280;2020;48.682;9.024;2023-06-24T06:35:24;97364.97;;;18.41;60.74
4012;BME280;2020;48.682;9.024;2023-06-24T06:37:49;97365.88;;;18.34;59.72
4012;BME280;2020;48.682;9.024;2023-06-24T06:40:22;97362.13;;;18.58;59.51
4012;BME280;2020;48.682;9.024;2023-06-24T06:42:47;97360.25;;;18.74;58.04
4012;BME280;2020;48.682;9.024;2023-06-24T06:45:13;97358.88;;;18.78;57.33
4012;BME280;2020;48.682;9.024;2023-06-24T06:47:38;97364.00;;;18.64;58.55
4012;BME280;2020;48.682;9.024;2023-06-24T06:50:04;97354.22;;;18.95;58.76
4012;BME280;2020;48.682;9.024;2023-06-24T06:52:30;97355.81;;;19.11;58.00
4012;BME280;2020;48.682;9.024;2023-06-24T06:54:55;97354.03;;;19.18;57.09
4012;BME280;2020;48.682;9.024;2023-06-24T06:57:22;97359.22;;;19.26;57.85
4012;BME280;2020;48.682;9.024;2023-06-24T06:59:47;97351.19;;;19.63;57.27
4012;BME280;2020;48.682;9.024;2023-06-24T07:02:14;97344.34;;;19.69;56.91
4012;BME280;2020;48.682;9.024;2023-06-24T07:04:40;97350.94;;;19.86;56.58
4012;BME280;2020;48.682;9.024;2023-06-24T07:07:05;97349.44;;;19.99;55.72
4012;BME280;2020;48.682;9.024;2023-06-24T07:09:30;97353.47;;;19.95;55.91
4012;BME280;2020;48.682;9.024;2023-06-24T07:11:55;97345.69;;;20.22;56.06
4012;BME280;2020;48.682;9.024;2023-06-24T07:14:21;97354.63;;;20.56;55.04
4012;BME280;2020;48.682;9.024;2023-06-24T07:16:46;97352.22;;;20.74;54.83
4012;BME280;2020;48.682;9.024;2023-06-24T07:19:11;97351.63;;;20.72;53.91
4012;BME280;2020;48.682;9.024;2023-06-24T07:21:37;97357.47;;;20.61;53.97
4012;BME280;2020;48.682;9.024;2023-06-24T07:24:03;97357.53;;;20.74;54.71
4012;BME280;2020;48.682;9.024;2023-06-24T07:26:28;97353.75;;;20.97;54.08
4012;BME280;2020;48.682;9.024;2023-06-24T07:28:56;97349.09;;;21.13;52.40
4012;BME280;2020;48.682;9.024;2023-06-24T07:31:23;97348.47;;;21.11;51.82
4012;BME280;2020;48.682;9.024;2023-06-24T07:33:48;97346.66;;;21.31;51.27
4012;BME280;2020;48.682;9.024;2023-06-24T07:36:13;97345.84;;;21.38;50.47
4012;BME280;2020;48.682;9.024;2023-06-24T07:38:38;97346.66;;;21.31;50.53
4012;BME280;2020;48.682;9.024;2023-06-24T07:41:04;97347.47;;;21.52;50.08
4012;BME280;2020;48.682;9.024;2023-06-24T07:43:29;97340.34;;;21.73;48.60
4012;BME280;2020;48.682;9.024;2023-06-24T07:45:54;97345.88;;;21.91;48.12
4012;BME280;2020;48.682;9.024;2023-06-24T07:48:20;97346.28;;;21.88;47.82
4012;BME280;2020;48.682;9.024;2023-06-24T07:50:46;97339.09;;;22.02;47.91
4012;BME280;2020;48.682;9.024;2023-06-24T07:53:11;97342.53;;;22.16;47.46
4012;BME280;2020;48.682;9.024;2023-06-24T07:55:36;97340.69;;;22.17;46.86
4012;BME280;2020;48.682;9.024;2023-06-24T07:58:02;97345.31;;;22.48;46.55
4012;BME280;2020;48.682;9.024;2023-06-24T08:00:28;97337.97;;;22.51;46.17
4012;BME280;2020;48.682;9.024;2023-06-24T08:02:53;97342.00;;;22.60;46.09
4012;BME280;2020;48.682;9.024;2023-06-24T08:05:20;97334.22;;;22.65;45.80
4012;BME280;2020;48.682;9.024;2023-06-24T08:07:45;97330.34;;;22.68;45.41
4012;BME280;2020;48.682;9.024;2023-06-24T08:10:11;97341.31;;;22.78;45.07
4012;BME280;2020;48.682;9.024;2023-06-24T08:12:36;97336.25;;;22.70;44.54
4012;BME280;2020;48.682;9.024;2023-06-24T08:15:02;97339.81;;;22.89;45.59
4012;BME280;2020;48.682;9.024;2023-06-24T08:17:27;97340.84;;;23.20;44.06
4012;BME280;2020;48.682;9.024;2023-06-24T08:19:53;97331.16;;;23.00;44.18
4012;BME280;2020;48.682;9.024;2023-06-24T08:22:18;97335.28;;;22.96;44.71
4012;BME280;2020;48.682;9.024;2023-06-24T08:24:43;97336.13;;;22.90;44.41
4012;BME280;2020;48.682;9.024;2023-06-24T08:27:09;97330.94;;;23.41;44.76
4012;BME280;2020;48.682;9.024;2023-06-24T08:29:34;97332.56;;;23.42;43.07
4012;BME280;2020;48.682;9.024;2023-06-24T08:31:59;97324.31;;;23.50;42.82
4012;BME280;2020;48.682;9.024;2023-06-24T08:34:24;97326.34;;;23.16;42.59
4012;BME280;2020;48.682;9.024;2023-06-24T08:36:50;97318.50;;;23.34;43.05
4012;BME280;2020;48.682;9.024;2023-06-24T08:39:15;97319.75;;;23.57;42.85
4012;BME280;2020;48.682;9.024;2023-06-24T08:41:40;97316.69;;;23.79;43.03
4012;BME280;2020;48.682;9.024;2023-06-24T08:44:05;97323.78;;;23.85;42.01
4012;BME280;2020;48.682;9.024;2023-06-24T08:46:31;97317.69;;;24.03;42.06
4012;BME280;2020;48.682;9.024;2023-06-24T08:51:44;97322.47;;;24.32;41.27
4012;BME280;2020;48.682;9.024;2023-06-24T08:54:14;97320.09;;;24.42;38.48
4012;BME280;2020;48.682;9.024;2023-06-24T08:56:40;97320.81;;;24.49;39.58
4012;BME280;2020;48.682;9.024;2023-06-24T08:59:06;97317.72;;;24.71;39.90
4012;BME280;2020;48.682;9.024;2023-06-24T09:01:32;97323.78;;;24.78;39.97
4012;BME280;2020;48.682;9.024;2023-06-24T09:03:57;97312.22;;;24.85;40.00
4012;BME280;2020;48.682;9.024;2023-06-24T09:06:22;97309.78;;;24.83;40.21
4012;BME280;2020;48.682;9.024;2023-06-24T09:08:57;97317.91;;;24.70;39.24
4012;BME280;2020;48.682;9.024;2023-06-24T09:11:26;97315.94;;;24.65;39.80
4012;BME280;2020;48.682;9.024;2023-06-24T09:13:56;97311.78;;;24.88;39.07
4012;BME280;2020;48.682;9.024;2023-06-24T09:16:21;97309.78;;;24.52;38.50
4012;BME280;2020;48.682;9.024;2023-06-24T09:18:48;97303.88;;;24.62;38.26
4012;BME280;2020;48.682;9.024;2023-06-24T09:21:21;97307.69;;;24.85;37.21
4012;BME280;2020;48.682;9.024;2023-06-24T09:23:46;97306.25;;;25.01;38.64
4012;BME280;2020;48.682;9.024;2023-06-24T09:26:12;97299.75;;;24.97;37.76
4012;BME280;2020;48.682;9.024;2023-06-24T09:28:37;97289.06;;;25.28;38.38
4012;BME280;2020;48.682;9.024;2023-06-24T09:31:06;97286.50;;;25.45;37.01
4012;BME280;2020;48.682;9.024;2023-06-24T09:33:32;97287.22;;;25.40;37.57
4012;BME280;2020;48.682;9.024;2023-06-24T09:35:58;97287.75;;;25.30;37.22
4012;BME280;2020;48.682;9.024;2023-06-24T09:38:34;97296.00;;;24.74;37.94
4012;BME280;2020;48.682;9.024;2023-06-24T09:41:03;97293.03;;;24.45;37.43
4012;BME280;2020;48.682;9.024;2023-06-24T09:43:30;97287.94;;;24.93;36.02
4012;BME280;2020;48.682;9.024;2023-06-24T09:45:56;97281.09;;;24.55;36.64
4012;BME280;2020;48.682;9.024;2023-06-24T09:48:22;97278.16;;;24.26;37.55
4012;BME280;2020;48.682;9.024;2023-06-24T09:50:47;97272.22;;;24.42;37.72
4012;BME280;2020;48.682;9.024;2023-06-24T09:53:14;97276.66;;;24.79;36.06
4012;BME280;2020;48.682;9.024;2023-06-24T09:55:40;97269.25;;;24.50;36.81
4012;BME280;2020;48.682;9.024;2023-06-24T09:58:08;97264.84;;;24.75;36.99
4012;BME280;2020;48.682;9.024;2023-06-24T10:00:35;97264.44;;;25.02;36.93
4012;BME280;2020;48.682;9.024;2023-06-24T10:03:00;97261.25;;;25.35;36.79
4012;BME280;2020;48.682;9.024;2023-06-24T10:05:26;97261.13;;;25.30;36.25
4012;BME280;2020;48.682;9.024;2023-06-24T10:07:51;97259.28;;;25.66;35.66
4012;BME280;2020;48.682;9.024;2023-06-24T10:10:17;97249.56;;;26.25;34.73
4012;BME280;2020;48.682;9.024;2023-06-24T10:12:43;97254.81;;;26.20;34.28
4012;BME280;2020;48.682;9.024;2023-06-24T10:15:08;97247.28;;;26.75;35.07
4012;BME280;2020;48.682;9.024;2023-06-24T10:17:33;97252.69;;;26.34;33.12
4012;BME280;2020;48.682;9.024;2023-06-24T10:20:03;97249.63;;;26.42;34.03
4012;BME280;2020;48.682;9.024;2023-06-24T10:22:30;97248.00;;;26.00;34.21
4012;BME280;2020;48.682;9.024;2023-06-24T10:24:59;97242.47;;;25.90;34.35
4012;BME280;2020;48.682;9.024;2023-06-24T10:27:25;97232.47;;;26.38;35.07
4012;BME280;2020;48.682;9.024;2023-06-24T10:29:53;97233.38;;;26.73;33.83
4012;BME280;2020;48.682;9.024;2023-06-24T10:32:19;97230.28;;;26.64;32.38
4012;BME280;2020;48.682;9.024;2023-06-24T10:34:47;97228.00;;;26.55;33.17
4012;BME280;2020;48.682;9.024;2023-06-24T10:44:49;97219.28;;;26.60;31.81
4012;BME280;2020;48.682;9.024;2023-06-24T10:47:14;97212.56;;;26.28;32.13
4012;BME280;2020;48.682;9.024;2023-06-24T10:49:40;97209.00;;;25.70;33.46
4012;BME280;2020;48.682;9.024;2023-06-24T10:52:08;97213.22;;;25.95;34.57
4012;BME280;2020;48.682;9.024;2023-06-24T10:54:34;97217.13;;;26.45;33.90
4012;BME280;2020;48.682;9.024;2023-06-24T10:57:00;97205.44;;;26.80;32.14
4012;BME280;2020;48.682;9.024;2023-06-24T10:59:25;97203.84;;;27.13;32.49
4012;BME280;2020;48.682;9.024;2023-06-24T11:01:53;97203.28;;;27.28;32.48
4012;BME280;2020;48.682;9.024;2023-06-24T11:04:19;97206.28;;;26.98;33.01
4012;BME280;2020;48.682;9.024;2023-06-24T11:07:04;97207.34;;;26.34;33.50
4012;BME280;2020;48.682;9.024;2023-06-24T11:09:30;97215.88;;;26.07;33.43
4012;BME280;2020;48.682;9.024;2023-06-24T11:11:55;97202.97;;;25.75;33.13
4012;BME280;2020;48.682;9.024;2023-06-24T11:14:20;97193.63;;;25.48;34.41
4012;BME280;2020;48.682;9.024;2023-06-24T11:16:45;97201.09;;;25.87;34.38
4012;BME280;2020;48.682;9.024;2023-06-24T11:19:11;97200.53;;;26.14;33.86
4012;BME280;2020;48.682;9.024;2023-06-24T11:21:36;97180.09;;;26.49;32.50
4012;BME280;2020;48.682;9.024;2023-06-24T11:24:05;97183.03;;;26.64;31.17
4012;BME280;2020;48.682;9.024;2023-06-24T11:26:31;97185.72;;;26.18;31.48
4012;BME280;2020;48.682;9.024;2023-06-24T11:28:56;97172.63;;;26.05;32.63
4012;BME280;2020;48.682;9.024;2023-06-24T11:31:28;97183.13;;;25.82;32.59
4012;BME280;2020;48.682;9.024;2023-06-24T11:33:53;97172.19;;;25.55;33.88
4012;BME280;2020;48.682;9.024;2023-06-24T11:36:19;97173.75;;;25.80;34.26
4012;BME280;2020;48.682;9.024;2023-06-24T11:38:47;97170.94;;;26.27;32.45
4012;BME280;2020;48.682;9.024;2023-06-24T11:41:14;97168.22;;;26.56;33.00
4012;BME280;2020;48.682;9.024;2023-06-24T11:43:45;97167.00;;;26.81;31.12
4012;BME280;2020;48.682;9.024;2023-06-24T11:46:21;97162.00;;;27.19;30.04
4012;BME280;2020;48.682;9.024;2023-06-24T11:48:46;97152.41;;;27.40;31.00
4012;BME280;2020;48.682;9.024;2023-06-24T11:51:12;97148.84;;;27.52;29.49
4012;BME280;2020;48.682;9.024;2023-06-24T11:53:44;97151.41;;;27.47;30.03
4012;BME280;2020;48.682;9.024;2023-06-24T11:56:11;97139.25;;;27.56;30.48
4012;BME280;2020;48.682;9.024;2023-06-24T11:58:36;97148.47;;;27.26;30.29
4012;BME280;2020;48.682;9.024;2023-06-24T12:01:02;97143.81;;;27.38;29.56
4012;BME280;2020;48.682;9.024;2023-06-24T12:03:30;97144.78;;;27.49;29.51
4012;BME280;2020;48.682;9.024;2023-06-24T12:05:57;97141.66;;;27.80;30.67
4012;BME280;2020;48.682;9.024;2023-06-24T12:08:23;97141.16;;;28.05;30.36
4012;BME280;2020;48.682;9.024;2023-06-24T12:10:48;97132.78;;;28.51;29.58
4012;BME280;2020;48.682;9.024;2023-06-24T12:13:13;97132.56;;;28.30;28.94
4012;BME280;2020;48.682;9.024;2023-06-24T12:15:39;97128.53;;;28.28;29.08
4012;BME280;2020;48.682;9.024;2023-06-24T12:18:04;97124.38;;;28.42;28.63
4012;BME280;2020;48.682;9.024;2023-06-24T12:20:30;97105.88;;;28.41;28.46
4012;BME280;2020;48.682;9.024;2023-06-24T12:22:57;97112.22;;;28.62;29.03
4012;BME280;2020;48.682;9.024;2023-06-24T12:25:22;97105.19;;;28.51;28.21
4012;BME280;2020;48.682;9.024;2023-06-24T12:27:48;97102.84;;;28.59;29.09
4012;BME280;2020;48.682;9.024;2023-06-24T12:30:13;97110.88;;;28.59;28.13
4012;BME280;2020;48.682;9.024;2023-06-24T12:32:39;97101.06;;;28.75;28.35
4012;BME280;2020;48.682;9.024;2023-06-24T12:35:05;97104.88;;;28.47;28.49
4012;BME280;2020;48.682;9.024;2023-06-24T12:37:33;97105.81;;;28.30;28.74
4012;BME280;2020;48.682;9.024;2023-06-24T12:40:02;97099.34;;;28.26;28.72
4012;BME280;2020;48.682;9.024;2023-06-24T12:42:28;97092.50;;;28.41;29.07
4012;BME280;2020;48.682;9.024;2023-06-24T12:44:53;97095.91;;;28.64;29.24
4012;BME280;2020;48.682;9.024;2023-06-24T12:47:19;97091.97;;;28.39;27.83
4012;BME280;2020;48.682;9.024;2023-06-24T12:49:45;97092.47;;;28.36;28.26
4012;BME280;2020;48.682;9.024;2023-06-24T12:52:10;97092.38;;;28.25;28.01
4012;BME280;2020;48.682;9.024;2023-06-24T12:54:35;97081.88;;;27.02;29.49
4012;BME280;2020;48.682;9.024;2023-06-24T12:57:01;97089.88;;;27.41;28.81
4012;BME280;2020;48.682;9.024;2023-06-24T12:59:27;97090.06;;;28.07;28.72
4012;BME280;2020;48.682;9.024;2023-06-24T13:01:52;97081.75;;;28.36;28.68
4012;BME280;2020;48.682;9.024;2023-06-24T13:04:17;97072.47;;;28.43;27.77
4012;BME280;2020;48.682;9.024;2023-06-24T13:06:45;97076.59;;;28.56;28.13
4012;BME280;2020;48.682;9.024;2023-06-24T13:09:10;97071.22;;;28.94;27.83
4012;BME280;2020;48.682;9.024;2023-06-24T13:11:36;97065.47;;;29.18;28.25
4012;BME280;2020;48.682;9.024;2023-06-24T13:14:02;97069.50;;;29.31;26.59
4012;BME280;2020;48.682;9.024;2023-06-24T13:16:27;97064.53;;;28.97;26.77
4012;BME280;2020;48.682;9.024;2023-06-24T13:18:53;97062.50;;;29.19;26.89
4012;BME280;2020;48.682;9.024;2023-06-24T13:21:18;97053.88;;;29.07;27.34
4012;BME280;2020;48.682;9.024;2023-06-24T13:23:43;97052.16;;;28.85;27.21
4012;BME280;2020;48.682;9.024;2023-06-24T13:26:08;97061.13;;;28.69;27.64
4012;BME280;2020;48.682;9.024;2023-06-24T13:28:36;97064.25;;;28.93;28.49
4012;BME280;2020;48.682;9.024;2023-06-24T13:31:01;97061.97;;;29.23;28.84
4012;BME280;2020;48.682;9.024;2023-06-24T13:33:26;97057.72;;;29.27;27.36
4012;BME280;2020;48.682;9.024;2023-06-24T13:35:52;97058.44;;;29.12;27.52
4012;BME280;2020;48.682;9.024;2023-06-24T13:38:17;97054.22;;;29.21;27.55
4012;BME280;2020;48.682;9.024;2023-06-24T13:40:43;97055.84;;;29.27;27.42